sensor_id;sensor_type;location;lat;lon;timestamp;pressure;altitude;pressure_sealevel;temperature;humidity
69257;BME280;56376;53.356;-1.748;2023-03-15T00:01:36;99221.84;;;0.86;100.00
69257;BME280;56376;53.356;-1.748;2023-03-15T00:04:01;99223.56;;;0.83;100.00
69257;BME280;56376;53.356;-1.748;2023-03-15T00:06:33;99233.88;;;0.81;100.00
69257;BME280;56376;53.356;-1.748;2023-03-15T00:09:02;99233.00;;;0.82;100.00
69257;BME280;56376;53.356;-1.748;2023-03-15T00:11:28;99232.13;;;0.80;100.00
69257;BME280;56376;53.356;-1.748;2023-03-15T00:13:56;99237.31;;;0.79;100.00
69257;BME280;56376;53.356;-1.748;2023-03-15T00:16:21;99230.44;;;0.76;100.00
69257;BME280;56376;53.356;-1.748;2023-03-15T00:18:53;99240.72;;;0.76;100.00
69257;BME280;56376;53.356;-1.748;2023-03-15T00:21:20;99250.16;;;0.73;100.00
69257;BME280;56376;53.356;-1.748;2023-03-15T00:23:46;99255.31;;;0.71;100.00
69257;BME280;56376;53.356;-1.748;2023-03-15T00:26:12;99246.72;;;0.68;100.00
69257;BME280;56376;53.356;-1.748;2023-03-15T00:28:38;99244.16;;;0.66;100.00
69257;BME280;56376;53.356;-1.748;2023-03-15T00:33:37;99257.88;;;0.65;100.00
69257;BME280;56376;53.356;-1.748;2023-03-15T00:36:05;99265.59;;;0.67;100.00
69257;BME280;56376;53.356;-1.748;2023-03-15T00:38:32;99273.28;;;0.70;100.00
69257;BME280;56376;53.356;-1.748;2023-03-15T00:41:02;99263.00;;;0.73;100.00
69257;BME280;56376;53.356;-1.748;2023-03-15T00:43:28;99262.16;;;0.69;100.00
69257;BME280;56376;53.356;-1.748;2023-03-15T00:45:53;99263.00;;;0.65;100.00
69257;BME280;56376;53.356;-1.748;2023-03-15T00:48:19;99263.00;;;0.65;100.00
69257;BME280;56376;53.356;-1.748;2023-03-15T00:50:44;99269.00;;;0.62;100.00
69257;BME280;56376;53.356;-1.748;2023-03-15T00:53:09;99279.28;;;0.59;100.00
69257;BME280;56376;53.356;-1.748;2023-03-15T00:55:35;99275.03;;;0.54;100.00
69257;BME280;56376;53.356;-1.748;2023-03-15T00:58:01;99290.44;;;0.51;100.00
69257;BME280;56376;53.356;-1.748;2023-03-15T01:00:26;99290.41;;;0.48;100.00
69257;BME280;56376;53.356;-1.748;2023-03-15T01:02:53;99298.13;;;0.49;100.00
69257;BME280;56376;53.356;-1.748;2023-03-15T01:05:19;99293.84;;;0.47;100.00
69257;BME280;56376;53.356;-1.748;2023-03-15T01:07:45;99300.69;;;0.45;100.00
69257;BME280;56376;53.356;-1.748;2023-03-15T01:10:12;99296.44;;;0.43;100.00
69257;BME280;56376;53.356;-1.748;2023-03-15T01:12:38;99300.72;;;0.43;100.00
69257;BME280;56376;53.356;-1.748;2023-03-15T01:15:05;99306.72;;;0.40;100.00
69257;BME280;56376;53.356;-1.748;2023-03-15T01:17:31;99299.84;;;0.39;100.00
69257;BME280;56376;53.356;-1.748;2023-03-15T01:19:59;99308.41;;;0.38;100.00
69257;BME280;56376;53.356;-1.748;2023-03-15T01:22:25;99302.41;;;0.36;100.00
69257;BME280;56376;53.356;-1.748;2023-03-15T01:24:50;99318.69;;;0.31;100.00
69257;BME280;56376;53.356;-1.748;2023-03-15T01:27:15;99317.81;;;0.24;100.00
69257;BME280;56376;53.356;-1.748;2023-03-15T01:29:41;99340.94;;;0.21;100.00
69257;BME280;56376;53.356;-1.748;2023-03-15T01:32:07;99340.03;;;0.14;100.00
69257;BME280;56376;53.356;-1.748;2023-03-15T01:34:33;99345.19;;;0.11;100.00
69257;BME280;56376;53.356;-1.748;2023-03-15T01:36:59;99348.59;;;0.12;100.00
69257;BME280;56376;53.356;-1.748;2023-03-15T01:39:25;99352.88;;;0.10;100.00
69257;BME280;56376;53.356;-1.748;2023-03-15T01:41:50;99356.28;;;0.07;100.00
69257;BME280;56376;53.356;-1.748;2023-03-15T01:44:17;99357.13;;;0.02;100.00
69257;BME280;56376;53.356;-1.748;2023-03-15T01:46:43;99365.69;;;0.02;100.00
69257;BME280;56376;53.356;-1.748;2023-03-15T01:49:14;99363.09;;;-0.01;100.00
69257;BME280;56376;53.356;-1.748;2023-03-15T01:51:44;99361.41;;;-0.02;100.00
69257;BME280;56376;53.356;-1.748;2023-03-15T01:54:21;99350.25;;;-0.06;100.00
69257;BME280;56376;53.356;-1.748;2023-03-15T01:56:54;99362.25;;;-0.06;100.00
69257;BME280;56376;53.356;-1.748;2023-03-15T01:59:30;99360.50;;;-0.09;100.00
69257;BME280;56376;53.356;-1.748;2023-03-15T02:01:56;99359.66;;;-0.11;100.00
69257;BME280;56376;53.356;-1.748;2023-03-15T02:04:30;99357.94;;;-0.09;100.00
69257;BME280;56376;53.356;-1.748;2023-03-15T02:06:59;99368.19;;;-0.10;100.00
69257;BME280;56376;53.356;-1.748;2023-03-15T02:09:34;99367.34;;;-0.14;100.00
69257;BME280;56376;53.356;-1.748;2023-03-15T02:12:03;99366.47;;;-0.19;100.00
69257;BME280;56376;53.356;-1.748;2023-03-15T02:14:30;99366.44;;;-0.20;100.00
69257;BME280;56376;53.356;-1.748;2023-03-15T02:16:57;99359.59;;;-0.26;100.00
69257;BME280;56376;53.356;-1.748;2023-03-15T02:19:51;99360.44;;;-0.29;100.00
69257;BME280;56376;53.356;-1.748;2023-03-15T02:22:35;99359.56;;;-0.32;100.00
69257;BME280;56376;53.356;-1.748;2023-03-15T02:27:56;99356.97;;;-0.35;100.00
69257;BME280;56376;53.356;-1.748;2023-03-15T02:30:21;99359.50;;;-0.38;100.00
69257;BME280;56376;53.356;-1.748;2023-03-15T02:32:47;99358.66;;;-0.40;100.00
69257;BME280;56376;53.356;-1.748;2023-03-15T02:35:25;99355.25;;;-0.39;100.00
69257;BME280;56376;53.356;-1.748;2023-03-15T02:37:51;99355.25;;;-0.42;100.00
69257;BME280;56376;53.356;-1.748;2023-03-15T02:40:19;99349.22;;;-0.48;100.00
69257;BME280;56376;53.356;-1.748;2023-03-15T02:42:45;99352.63;;;-0.49;100.00
69257;BME280;56376;53.356;-1.748;2023-03-15T02:45:12;99363.75;;;-0.47;100.00
69257;BME280;56376;53.356;-1.748;2023-03-15T02:47:38;99358.63;;;-0.50;100.00
69257;BME280;56376;53.356;-1.748;2023-03-15T02:50:04;99366.31;;;-0.53;100.00
69257;BME280;56376;53.356;-1.748;2023-03-15T02:52:31;99377.41;;;-0.54;100.00
69257;BME280;56376;53.356;-1.748;2023-03-15T02:54:57;99374.81;;;-0.57;100.00
69257;BME280;56376;53.356;-1.748;2023-03-15T02:57:22;99369.69;;;-0.60;100.00
69257;BME280;56376;53.356;-1.748;2023-03-15T02:59:47;99364.53;;;-0.60;100.00
69257;BME280;56376;53.356;-1.748;2023-03-15T03:02:16;99388.47;;;-0.61;100.00
69257;BME280;56376;53.356;-1.748;2023-03-15T03:04:42;99397.03;;;-0.60;100.00
69257;BME280;56376;53.356;-1.748;2023-03-15T03:07:07;99384.19;;;-0.62;100.00
69257;BME280;56376;53.356;-1.748;2023-03-15T03:09:33;99379.91;;;-0.64;100.00
69257;BME280;56376;53.356;-1.748;2023-03-15T03:11:58;99382.44;;;-0.66;100.00
69257;BME280;56376;53.356;-1.748;2023-03-15T03:14:23;99377.28;;;-0.71;100.00
69257;BME280;56376;53.356;-1.748;2023-03-15T03:16:50;99383.25;;;-0.73;100.00
69257;BME280;56376;53.356;-1.748;2023-03-15T03:19:15;99394.34;;;-0.77;100.00
69257;BME280;56376;53.356;-1.748;2023-03-15T03:21:40;99386.63;;;-0.82;100.00
69257;BME280;56376;53.356;-1.748;2023-03-15T03:24:08;99383.19;;;-0.84;100.00
69257;BME280;56376;53.356;-1.748;2023-03-15T03:26:36;99387.47;;;-0.84;100.00
69257;BME280;56376;53.356;-1.748;2023-03-15T03:29:03;99376.31;;;-0.87;100.00
69257;BME280;56376;53.356;-1.748;2023-03-15T03:31:31;99378.06;;;-0.85;100.00
69257;BME280;56376;53.356;-1.748;2023-03-15T03:33:59;99384.88;;;-0.86;100.00
69257;BME280;56376;53.356;-1.748;2023-03-15T03:36:25;99383.16;;;-0.90;100.00
69257;BME280;56376;53.356;-1.748;2023-03-15T03:38:51;99379.72;;;-0.91;100.00
69257;BME280;56376;53.356;-1.748;2023-03-15T03:41:18;99382.31;;;-0.91;100.00
69257;BME280;56376;53.356;-1.748;2023-03-15T03:43:43;99375.47;;;-0.90;100.00
69257;BME280;56376;53.356;-1.748;2023-03-15T03:46:09;99383.13;;;-0.92;100.00
69257;BME280;56376;53.356;-1.748;2023-03-15T03:48:34;99384.81;;;-0.94;100.00
69257;BME280;56376;53.356;-1.748;2023-03-15T03:51:00;99387.38;;;-0.94;100.00
69257;BME280;56376;53.356;-1.748;2023-03-15T03:53:25;99392.50;;;-0.94;100.00
69257;BME280;56376;53.356;-1.748;2023-03-15T03:55:51;99389.06;;;-0.97;100.00
69257;BME280;56376;53.356;-1.748;2023-03-15T03:58:18;99386.50;;;-0.97;100.00
69257;BME280;56376;53.356;-1.748;2023-03-15T04:00:44;99395.94;;;-0.95;100.00
69257;BME280;56376;53.356;-1.748;2023-03-15T04:03:09;99400.19;;;-0.94;100.00
69257;BME280;56376;53.356;-1.748;2023-03-15T04:05:34;99399.34;;;-0.94;100.00
69257;BME280;56376;53.356;-1.748;2023-03-15T04:08:00;99413.91;;;-0.92;100.00
69257;BME280;56376;53.356;-1.748;2023-03-15T04:10:25;99404.50;;;-0.91;100.00
69257;BME280;56376;53.356;-1.748;2023-03-15T04:12:57;99401.97;;;-0.90;100.00
69257;BME280;56376;53.356;-1.748;2023-03-15T04:15:23;99401.97;;;-0.87;100.00
69257;BME280;56376;53.356;-1.748;2023-03-15T04:17:50;99396.88;;;-0.85;100.00
69257;BME280;56376;53.356;-1.748;2023-03-15T04:20:21;99399.44;;;-0.85;100.00
69257;BME280;56376;53.356;-1.748;2023-03-15T04:22:47;99396.84;;;-0.83;100.00
69257;BME280;56376;53.356;-1.748;2023-03-15T04:25:20;99393.47;;;-0.82;100.00
69257;BME280;56376;53.356;-1.748;2023-03-15T04:27:46;99384.91;;;-0.83;100.00
69257;BME280;56376;53.356;-1.748;2023-03-15T04:30:25;99386.66;;;-0.80;100.00
69257;BME280;56376;53.356;-1.748;2023-03-15T04:32:52;99379.81;;;-0.80;100.00
69257;BME280;56376;53.356;-1.748;2023-03-15T04:35:28;99375.50;;;-0.81;100.00
69257;BME280;56376;53.356;-1.748;2023-03-15T04:37:53;99375.50;;;-0.82;100.00
69257;BME280;56376;53.356;-1.748;2023-03-15T04:40:20;99378.91;;;-0.83;100.00
69257;BME280;56376;53.356;-1.748;2023-03-15T04:42:51;99377.19;;;-0.86;100.00
69257;BME280;56376;53.356;-1.748;2023-03-15T04:45:20;99383.22;;;-0.82;100.00
69257;BME280;56376;53.356;-1.748;2023-03-15T04:47:45;99385.78;;;-0.82;100.00
69257;BME280;56376;53.356;-1.748;2023-03-15T04:50:10;99382.34;;;-0.83;100.00
69257;BME280;56376;53.356;-1.748;2023-03-15T04:52:37;99380.66;;;-0.82;100.00
69257;BME280;56376;53.356;-1.748;2023-03-15T04:55:03;99384.91;;;-0.83;100.00
69257;BME280;56376;53.356;-1.748;2023-03-15T04:57:29;99394.31;;;-0.85;100.00
69257;BME280;56376;53.356;-1.748;2023-03-15T04:59:54;99391.72;;;-0.87;100.00
69257;BME280;56376;53.356;-1.748;2023-03-15T05:02:21;99390.00;;;-0.88;100.00
69257;BME280;56376;53.356;-1.748;2023-03-15T05:04:46;99390.84;;;-0.89;100.00
69257;BME280;56376;53.356;-1.748;2023-03-15T05:07:12;99386.59;;;-0.88;100.00
69257;BME280;56376;53.356;-1.748;2023-03-15T05:09:37;99385.72;;;-0.89;100.00
69257;BME280;56376;53.356;-1.748;2023-03-15T05:12:04;99393.41;;;-0.89;100.00
69257;BME280;56376;53.356;-1.748;2023-03-15T05:14:30;99401.97;;;-0.88;100.00
69257;BME280;56376;53.356;-1.748;2023-03-15T05:16:56;99400.22;;;-0.92;100.00
69257;BME280;56376;53.356;-1.748;2023-03-15T05:19:26;99404.50;;;-0.93;100.00
69257;BME280;56376;53.356;-1.748;2023-03-15T05:21:52;99407.06;;;-0.96;100.00
69257;BME280;56376;53.356;-1.748;2023-03-15T05:24:19;99410.44;;;-0.98;100.00
69257;BME280;56376;53.356;-1.748;2023-03-15T05:26:45;99404.41;;;-1.02;100.00
69257;BME280;56376;53.356;-1.748;2023-03-15T05:29:11;99411.25;;;-1.02;100.00
69257;BME280;56376;53.356;-1.748;2023-03-15T05:31:37;99407.84;;;-1.03;100.00
69257;BME280;56376;53.356;-1.748;2023-03-15T05:34:03;99412.91;;;-1.06;100.00
69257;BME280;56376;53.356;-1.748;2023-03-15T05:36:29;99409.53;;;-1.05;100.00
69257;BME280;56376;53.356;-1.748;2023-03-15T05:38:55;99418.09;;;-1.03;100.00
69257;BME280;56376;53.356;-1.748;2023-03-15T05:41:20;99412.94;;;-1.04;100.00
69257;BME280;56376;53.356;-1.748;2023-03-15T05:43:46;99414.63;;;-1.06;100.00
69257;BME280;56376;53.356;-1.748;2023-03-15T05:46:11;99415.47;;;-1.09;100.00
69257;BME280;56376;53.356;-1.748;2023-03-15T05:48:36;99424.84;;;-1.11;100.00
69257;BME280;56376;53.356;-1.748;2023-03-15T05:51:02;99418.84;;;-1.15;100.00
69257;BME280;56376;53.356;-1.748;2023-03-15T05:53:27;99426.53;;;-1.15;100.00
69257;BME280;56376;53.356;-1.748;2023-03-15T05:55:53;99427.38;;;-1.14;100.00
69257;BME280;56376;53.356;-1.748;2023-03-15T05:58:18;99437.66;;;-1.13;100.00
69257;BME280;56376;53.356;-1.748;2023-03-15T06:00:43;99448.75;;;-1.15;100.00
69257;BME280;56376;53.356;-1.748;2023-03-15T06:03:09;99441.03;;;-1.18;100.00
69257;BME280;56376;53.356;-1.748;2023-03-15T06:05:34;99446.97;;;-1.21;100.00
69257;BME280;56376;53.356;-1.748;2023-03-15T06:07:59;99446.97;;;-1.22;100.00
69257;BME280;56376;53.356;-1.748;2023-03-15T06:10:25;99446.06;;;-1.24;100.00
69257;BME280;56376;53.356;-1.748;2023-03-15T06:12:50;99444.34;;;-1.28;100.00
69257;BME280;56376;53.356;-1.748;2023-03-15T06:15:17;99446.91;;;-1.27;100.00
69257;BME280;56376;53.356;-1.748;2023-03-15T06:17:43;99438.34;;;-1.31;100.00
69257;BME280;56376;53.356;-1.748;2023-03-15T06:20:09;99445.19;;;-1.29;100.00
69257;BME280;56376;53.356;-1.748;2023-03-15T06:22:34;99430.66;;;-1.29;100.00
69257;BME280;56376;53.356;-1.748;2023-03-15T06:25:00;99442.63;;;-1.31;100.00
69257;BME280;56376;53.356;-1.748;2023-03-15T06:27:27;99440.88;;;-1.32;100.00
69257;BME280;56376;53.356;-1.748;2023-03-15T06:29:53;99434.94;;;-1.31;100.00
69257;BME280;56376;53.356;-1.748;2023-03-15T06:32:18;99434.09;;;-1.27;100.00
69257;BME280;56376;53.356;-1.748;2023-03-15T06:34:44;99433.25;;;-1.27;100.00
69257;BME280;56376;53.356;-1.748;2023-03-15T06:37:09;99440.97;;;-1.26;100.00
69257;BME280;56376;53.356;-1.748;2023-03-15T06:39:38;99441.81;;;-1.25;100.00
69257;BME280;56376;53.356;-1.748;2023-03-15T06:42:04;99433.25;;;-1.24;100.00
69257;BME280;56376;53.356;-1.748;2023-03-15T06:44:30;99437.56;;;-1.23;100.00
69257;BME280;56376;53.356;-1.748;2023-03-15T06:46:56;99440.97;;;-1.23;100.00
69257;BME280;56376;53.356;-1.748;2023-03-15T06:49:21;99437.50;;;-1.26;100.00
69257;BME280;56376;53.356;-1.748;2023-03-15T06:51:47;99441.81;;;-1.25;100.00
69257;BME280;56376;53.356;-1.748;2023-03-15T06:54:12;99447.75;;;-1.28;100.00
69257;BME280;56376;53.356;-1.748;2023-03-15T06:56:37;99449.47;;;-1.28;100.00
69257;BME280;56376;53.356;-1.748;2023-03-15T06:59:03;99440.84;;;-1.34;100.00
69257;BME280;56376;53.356;-1.748;2023-03-15T07:01:28;99440.03;;;-1.33;100.00
69257;BME280;56376;53.356;-1.748;2023-03-15T07:03:54;99447.75;;;-1.31;100.00
69257;BME280;56376;53.356;-1.748;2023-03-15T07:06:19;99449.44;;;-1.30;100.00
69257;BME280;56376;53.356;-1.748;2023-03-15T07:08:45;99457.16;;;-1.27;100.00
69257;BME280;56376;53.356;-1.748;2023-03-15T07:11:11;99452.88;;;-1.28;100.00
69257;BME280;56376;53.356;-1.748;2023-03-15T07:13:37;99449.47;;;-1.28;100.00
69257;BME280;56376;53.356;-1.748;2023-03-15T07:16:02;99447.75;;;-1.28;100.00
69257;BME280;56376;53.356;-1.748;2023-03-15T07:18:28;99453.72;;;-1.31;100.00
69257;BME280;56376;53.356;-1.748;2023-03-15T07:20:57;99455.44;;;-1.26;100.00
69257;BME280;56376;53.356;-1.748;2023-03-15T07:23:23;99458.00;;;-1.26;100.00
69257;BME280;56376;53.356;-1.748;2023-03-15T07:25:49;99452.03;;;-1.28;100.00
69257;BME280;56376;53.356;-1.748;2023-03-15T07:28:14;99463.16;;;-1.25;100.00
69257;BME280;56376;53.356;-1.748;2023-03-15T07:30:40;99459.75;;;-1.25;100.00
69257;BME280;56376;53.356;-1.748;2023-03-15T07:33:05;99438.41;;;-1.23;100.00
69257;BME280;56376;53.356;-1.748;2023-03-15T07:35:30;99436.72;;;-1.22;100.00
69257;BME280;56376;53.356;-1.748;2023-03-15T07:37:56;99436.72;;;-1.21;100.00
69257;BME280;56376;53.356;-1.748;2023-03-15T07:40:21;99436.75;;;-1.16;100.00
69257;BME280;56376;53.356;-1.748;2023-03-15T07:42:47;99439.38;;;-1.13;100.00
69257;BME280;56376;53.356;-1.748;2023-03-15T07:45:13;99439.38;;;-1.10;100.00
69257;BME280;56376;53.356;-1.748;2023-03-15T07:47:39;99437.72;;;-1.08;100.00
69257;BME280;56376;53.356;-1.748;2023-03-15T07:50:05;99441.97;;;-1.07;100.00
69257;BME280;56376;53.356;-1.748;2023-03-15T07:52:31;99436.91;;;-1.02;100.00
69257;BME280;56376;53.356;-1.748;2023-03-15T07:54:57;99431.75;;;-1.04;100.00
69257;BME280;56376;53.356;-1.748;2023-03-15T07:57:22;99431.78;;;-0.99;100.00
69257;BME280;56376;53.356;-1.748;2023-03-15T07:59:47;99433.50;;;-0.97;100.00
69257;BME280;56376;53.356;-1.748;2023-03-15T08:02:14;99431.84;;;-0.92;100.00
69257;BME280;56376;53.356;-1.748;2023-03-15T08:04:40;99425.03;;;-0.93;100.00
69257;BME280;56376;53.356;-1.748;2023-03-15T08:07:05;99407.03;;;-0.97;100.00
69257;BME280;56376;53.356;-1.748;2023-03-15T08:09:31;99426.69;;;-0.95;100.00
69257;BME280;56376;53.356;-1.748;2023-03-15T08:11:59;99424.13;;;-0.95;100.00
69257;BME280;56376;53.356;-1.748;2023-03-15T08:14:25;99430.97;;;-0.94;100.00
69257;BME280;56376;53.356;-1.748;2023-03-15T08:16:51;99433.53;;;-0.94;100.00
69257;BME280;56376;53.356;-1.748;2023-03-15T08:19:16;99428.34;;;-1.03;100.00
69257;BME280;56376;53.356;-1.748;2023-03-15T08:21:42;99440.31;;;-0.99;100.00
69257;BME280;56376;53.356;-1.748;2023-03-15T08:24:12;99436.94;;;-0.98;100.00
69257;BME280;56376;53.356;-1.748;2023-03-15T08:26:38;99445.50;;;-0.96;100.00
69257;BME280;56376;53.356;-1.748;2023-03-15T08:29:04;99453.19;;;-0.94;100.00
69257;BME280;56376;53.356;-1.748;2023-03-15T08:31:30;99439.53;;;-0.93;100.00
69257;BME280;56376;53.356;-1.748;2023-03-15T08:33:55;99452.38;;;-0.89;100.00
69257;BME280;56376;53.356;-1.748;2023-03-15T08:36:21;99443.00;;;-0.87;100.00
69257;BME280;56376;53.356;-1.748;2023-03-15T08:38:46;99446.44;;;-0.84;100.00
69257;BME280;56376;53.356;-1.748;2023-03-15T08:41:12;99445.59;;;-0.83;100.00
69257;BME280;56376;53.356;-1.748;2023-03-15T08:43:37;99447.31;;;-0.82;100.00
69257;BME280;56376;53.356;-1.748;2023-03-15T08:46:02;99436.22;;;-0.80;100.00
69257;BME280;56376;53.356;-1.748;2023-03-15T08:48:28;99436.22;;;-0.80;100.00
69257;BME280;56376;53.356;-1.748;2023-03-15T08:50:54;99435.34;;;-0.82;100.00
69257;BME280;56376;53.356;-1.748;2023-03-15T08:53:19;99449.03;;;-0.78;100.00
69257;BME280;56376;53.356;-1.748;2023-03-15T08:55:46;99439.66;;;-0.76;100.00
69257;BME280;56376;53.356;-1.748;2023-03-15T08:58:12;99441.41;;;-0.71;100.00
69257;BME280;56376;53.356;-1.748;2023-03-15T09:00:38;99438.88;;;-0.69;100.00
69257;BME280;56376;53.356;-1.748;2023-03-15T09:03:03;99437.19;;;-0.67;100.00
69257;BME280;56376;53.356;-1.748;2023-03-15T09:05:29;99439.78;;;-0.66;100.00
69257;BME280;56376;53.356;-1.748;2023-03-15T09:07:54;99429.50;;;-0.64;100.00
69257;BME280;56376;53.356;-1.748;2023-03-15T09:10:20;99436.38;;;-0.58;100.00
69257;BME280;56376;53.356;-1.748;2023-03-15T09:12:48;99441.50;;;-0.58;100.00
69257;BME280;56376;53.356;-1.748;2023-03-15T09:15:15;99449.25;;;-0.54;100.00
69257;BME280;56376;53.356;-1.748;2023-03-15T09:17:41;99446.75;;;-0.48;100.00
69257;BME280;56376;53.356;-1.748;2023-03-15T09:20:08;99451.88;;;-0.45;100.00
69257;BME280;56376;53.356;-1.748;2023-03-15T09:22:43;99449.34;;;-0.41;100.00
69257;BME280;56376;53.356;-1.748;2023-03-15T09:25:13;99445.06;;;-0.39;100.00
69257;BME280;56376;53.356;-1.748;2023-03-15T09:27:39;99450.25;;;-0.35;100.00
69257;BME280;56376;53.356;-1.748;2023-03-15T09:30:05;99437.41;;;-0.33;100.00
69257;BME280;56376;53.356;-1.748;2023-03-15T09:32:31;99438.28;;;-0.30;100.00
69257;BME280;56376;53.356;-1.748;2023-03-15T09:35:04;99434.88;;;-0.26;100.00
69257;BME280;56376;53.356;-1.748;2023-03-15T09:37:30;99437.47;;;-0.21;100.00
69257;BME280;56376;53.356;-1.748;2023-03-15T09:39:55;99431.50;;;-0.20;100.00
69257;BME280;56376;53.356;-1.748;2023-03-15T09:48:10;99430.69;;;-0.05;100.00
69257;BME280;56376;53.356;-1.748;2023-03-15T09:53:30;99416.22;;;0.09;100.00
69257;BME280;56376;53.356;-1.748;2023-03-15T09:55:58;99422.25;;;0.17;100.00
69257;BME280;56376;53.356;-1.748;2023-03-15T09:58:26;99419.69;;;0.25;100.00
69257;BME280;56376;53.356;-1.748;2023-03-15T10:01:07;99423.16;;;0.35;100.00
69257;BME280;56376;53.356;-1.748;2023-03-15T10:03:52;99424.91;;;0.42;100.00
69257;BME280;56376;53.356;-1.748;2023-03-15T10:06:19;99423.22;;;0.49;100.00
69257;BME280;56376;53.356;-1.748;2023-03-15T10:08:48;99419.81;;;0.54;100.00
69257;BME280;56376;53.356;-1.748;2023-03-15T10:11:35;99411.25;;;0.63;100.00
69257;BME280;56376;53.356;-1.748;2023-03-15T10:16:51;99412.97;;;0.78;100.00
69257;BME280;56376;53.356;-1.748;2023-03-15T10:21:57;99411.28;;;0.91;100.00
69257;BME280;56376;53.356;-1.748;2023-03-15T10:24:41;99412.13;;;0.96;100.00
69257;BME280;56376;53.356;-1.748;2023-03-15T10:27:39;99398.44;;;1.03;100.00
69257;BME280;56376;53.356;-1.748;2023-03-15T10:30:27;99397.59;;;1.12;100.00
69257;BME280;56376;53.356;-1.748;2023-03-15T10:33:15;99397.56;;;1.18;100.00
69257;BME280;56376;53.356;-1.748;2023-03-15T10:35:43;99403.56;;;1.26;100.00
69257;BME280;56376;53.356;-1.748;2023-03-15T10:38:15;99389.00;;;1.31;100.00
69257;BME280;56376;53.356;-1.748;2023-03-15T10:40:44;99393.28;;;1.40;100.00
69257;BME280;56376;53.356;-1.748;2023-03-15T10:43:17;99396.69;;;1.45;100.00
69257;BME280;56376;53.356;-1.748;2023-03-15T10:45:46;99384.69;;;1.51;100.00
69257;BME280;56376;53.356;-1.748;2023-03-15T10:48:11;99392.38;;;1.58;100.00
69257;BME280;56376;53.356;-1.748;2023-03-15T10:50:38;99398.38;;;1.64;100.00
69257;BME280;56376;53.356;-1.748;2023-03-15T10:53:09;99385.47;;;1.72;100.00
69257;BME280;56376;53.356;-1.748;2023-03-15T10:55:40;99385.47;;;1.77;100.00
69257;BME280;56376;53.356;-1.748;2023-03-15T10:58:37;99377.72;;;1.83;100.00
69257;BME280;56376;53.356;-1.748;2023-03-15T11:01:05;99376.84;;;1.88;100.00
69257;BME280;56376;53.356;-1.748;2023-03-15T11:03:32;99381.09;;;1.94;100.00
69257;BME280;56376;53.356;-1.748;2023-03-15T11:05:58;99362.19;;;2.01;100.00
69257;BME280;56376;53.356;-1.748;2023-03-15T11:08:44;99371.63;;;2.05;100.00
69257;BME280;56376;53.356;-1.748;2023-03-15T11:11:10;99369.00;;;2.11;100.00
69257;BME280;56376;53.356;-1.748;2023-03-15T11:13:39;99361.25;;;2.17;100.00
69257;BME280;56376;53.356;-1.748;2023-03-15T11:16:20;99356.03;;;2.27;100.00
69257;BME280;56376;53.356;-1.748;2023-03-15T11:19:00;99356.03;;;2.33;100.00
69257;BME280;56376;53.356;-1.748;2023-03-15T11:21:32;99351.69;;;2.38;100.00
69257;BME280;56376;53.356;-1.748;2023-03-15T11:23:59;99348.25;;;2.42;100.00
69257;BME280;56376;53.356;-1.748;2023-03-15T11:26:26;99349.06;;;2.46;100.00
69257;BME280;56376;53.356;-1.748;2023-03-15T11:28:55;99353.34;;;2.50;100.00
69257;BME280;56376;53.356;-1.748;2023-03-15T11:31:25;99348.13;;;2.57;100.00
69257;BME280;56376;53.356;-1.748;2023-03-15T11:37:06;99342.03;;;2.69;100.00
69257;BME280;56376;53.356;-1.748;2023-03-15T11:39:43;99337.72;;;2.73;100.00
69257;BME280;56376;53.356;-1.748;2023-03-15T11:42:19;99336.78;;;2.81;100.00
69257;BME280;56376;53.356;-1.748;2023-03-15T11:44:48;99335.03;;;2.85;100.00
69257;BME280;56376;53.356;-1.748;2023-03-15T11:47:22;99333.25;;;2.93;100.00
69257;BME280;56376;53.356;-1.748;2023-03-15T11:49:55;99328.91;;;2.98;100.00
69257;BME280;56376;53.356;-1.748;2023-03-15T11:52:25;99325.41;;;3.04;100.00
69257;BME280;56376;53.356;-1.748;2023-03-15T11:54:55;99318.50;;;3.08;100.00
69257;BME280;56376;53.356;-1.748;2023-03-15T11:59:54;99317.53;;;3.16;100.00
69257;BME280;56376;53.356;-1.748;2023-03-15T12:04:51;99317.44;;;3.29;100.00
69257;BME280;56376;53.356;-1.748;2023-03-15T12:09:49;99317.31;;;3.39;100.00
69257;BME280;56376;53.356;-1.748;2023-03-15T12:19:59;99319.72;;;3.55;100.00
69257;BME280;56376;53.356;-1.748;2023-03-15T12:22:30;99323.16;;;3.58;100.00
69257;BME280;56376;53.356;-1.748;2023-03-15T12:24:58;99323.09;;;3.63;100.00
69257;BME280;56376;53.356;-1.748;2023-03-15T12:27:27;99320.47;;;3.64;100.00
69257;BME280;56376;53.356;-1.748;2023-03-15T12:29:59;99322.13;;;3.70;100.00
69257;BME280;56376;53.356;-1.748;2023-03-15T12:32:26;99312.63;;;3.74;100.00
69257;BME280;56376;53.356;-1.748;2023-03-15T12:34:57;99310.00;;;3.75;100.00
69257;BME280;56376;53.356;-1.748;2023-03-15T12:37:46;99302.25;;;3.78;100.00
69257;BME280;56376;53.356;-1.748;2023-03-15T12:56:33;99283.91;;;3.95;100.00
69257;BME280;56376;53.356;-1.748;2023-03-15T12:59:14;99288.19;;;3.98;100.00
69257;BME280;56376;53.356;-1.748;2023-03-15T13:01:41;99289.03;;;4.00;100.00
69257;BME280;56376;53.356;-1.748;2023-03-15T13:04:08;99279.53;;;4.02;100.00
69257;BME280;56376;53.356;-1.748;2023-03-15T13:15:08;99270.81;;;4.09;100.00
69257;BME280;56376;53.356;-1.748;2023-03-15T13:17:49;99275.94;;;4.12;100.00
69257;BME280;56376;53.356;-1.748;2023-03-15T13:20:52;99275.03;;;4.15;100.00
69257;BME280;56376;53.356;-1.748;2023-03-15T13:23:26;99272.44;;;4.16;100.00
69257;BME280;56376;53.356;-1.748;2023-03-15T13:29:13;99259.47;;;4.19;100.00
69257;BME280;56376;53.356;-1.748;2023-03-15T13:31:43;99262.91;;;4.21;100.00
69257;BME280;56376;53.356;-1.748;2023-03-15T13:34:14;99246.44;;;4.25;100.00
69257;BME280;56376;53.356;-1.748;2023-03-15T13:36:45;99250.75;;;4.26;100.00
69257;BME280;56376;53.356;-1.748;2023-03-15T13:39:20;99240.38;;;4.28;100.00
69257;BME280;56376;53.356;-1.748;2023-03-15T13:41:47;99241.13;;;4.34;100.00
69257;BME280;56376;53.356;-1.748;2023-03-15T13:44:19;99233.38;;;4.36;100.00
69257;BME280;56376;53.356;-1.748;2023-03-15T13:46:46;99240.22;;;4.37;100.00
69257;BME280;56376;53.356;-1.748;2023-03-15T13:49:13;99233.31;;;4.39;100.00
69257;BME280;56376;53.356;-1.748;2023-03-15T13:51:39;99216.06;;;4.38;100.00
69257;BME280;56376;53.356;-1.748;2023-03-15T13:54:10;99218.66;;;4.40;100.00